sensor_id;sensor_type;location;lat;lon;timestamp;temperature;humidity
55711;DHT22;41612;51.994;5.880;2024-03-06T00:00:19;8.30;84.00
55711;DHT22;41612;51.994;5.880;2024-03-06T00:02:53;8.30;84.00
55711;DHT22;41612;51.994;5.880;2024-03-06T00:05:21;8.30;84.00
55711;DHT22;41612;51.994;5.880;2024-03-06T00:07:49;8.30;84.20
55711;DHT22;41612;51.994;5.880;2024-03-06T00:10:18;8.40;84.10
55711;DHT22;41612;51.994;5.880;2024-03-06T00:12:54;8.30;83.90
55711;DHT22;41612;51.994;5.880;2024-03-06T00:15:25;8.30;84.00
55711;DHT22;41612;51.994;5.880;2024-03-06T00:17:54;8.20;84.00
55711;DHT22;41612;51.994;5.880;2024-03-06T00:20:21;8.20;84.20
55711;DHT22;41612;51.994;5.880;2024-03-06T00:22:56;8.20;84.10
55711;DHT22;41612;51.994;5.880;2024-03-06T00:25:27;8.20;84.30
55711;DHT22;41612;51.994;5.880;2024-03-06T00:27:58;8.20;84.40
55711;DHT22;41612;51.994;5.880;2024-03-06T00:30:26;8.10;84.20
55711;DHT22;41612;51.994;5.880;2024-03-06T00:32:52;8.10;84.10
55711;DHT22;41612;51.994;5.880;2024-03-06T00:35:39;8.00;84.10
55711;DHT22;41612;51.994;5.880;2024-03-06T00:38:07;8.00;84.00
55711;DHT22;41612;51.994;5.880;2024-03-06T00:40:36;8.00;84.00
55711;DHT22;41612;51.994;5.880;2024-03-06T00:43:04;8.00;84.00
55711;DHT22;41612;51.994;5.880;2024-03-06T00:45:31;7.90;84.00
55711;DHT22;41612;51.994;5.880;2024-03-06T00:48:00;7.90;84.00
55711;DHT22;41612;51.994;5.880;2024-03-06T00:50:26;7.80;84.00
55711;DHT22;41612;51.994;5.880;2024-03-06T00:52:55;7.70;84.00
55711;DHT22;41612;51.994;5.880;2024-03-06T00:55:24;7.60;84.00
55711;DHT22;41612;51.994;5.880;2024-03-06T00:57:57;7.60;84.10
55711;DHT22;41612;51.994;5.880;2024-03-06T01:00:32;7.50;84.10
55711;DHT22;41612;51.994;5.880;2024-03-06T01:02:58;7.40;84.20
55711;DHT22;41612;51.994;5.880;2024-03-06T01:05:29;7.40;84.50
55711;DHT22;41612;51.994;5.880;2024-03-06T01:07:57;7.30;84.50
55711;DHT22;41612;51.994;5.880;2024-03-06T01:10:24;7.30;84.80
55711;DHT22;41612;51.994;5.880;2024-03-06T01:12:53;7.30;84.90
55711;DHT22;41612;51.994;5.880;2024-03-06T01:15:19;7.20;85.30
55711;DHT22;41612;51.994;5.880;2024-03-06T01:17:50;7.20;85.40
55711;DHT22;41612;51.994;5.880;2024-03-06T01:20:19;7.20;85.50
55711;DHT22;41612;51.994;5.880;2024-03-06T01:22:48;7.10;85.70
55711;DHT22;41612;51.994;5.880;2024-03-06T01:25:21;7.20;85.60
55711;DHT22;41612;51.994;5.880;2024-03-06T01:28:04;7.10;85.80
55711;DHT22;41612;51.994;5.880;2024-03-06T01:30:32;7.10;86.20
55711;DHT22;41612;51.994;5.880;2024-03-06T01:33:06;7.10;86.40
55711;DHT22;41612;51.994;5.880;2024-03-06T01:35:32;7.10;86.20
55711;DHT22;41612;51.994;5.880;2024-03-06T01:37:58;7.00;86.20
55711;DHT22;41612;51.994;5.880;2024-03-06T01:40:32;7.00;86.20
55711;DHT22;41612;51.994;5.880;2024-03-06T01:42:59;6.90;86.30
55711;DHT22;41612;51.994;5.880;2024-03-06T01:45:38;6.90;86.30
55711;DHT22;41612;51.994;5.880;2024-03-06T01:48:08;6.80;86.40
55711;DHT22;41612;51.994;5.880;2024-03-06T01:50:34;6.80;86.40
55711;DHT22;41612;51.994;5.880;2024-03-06T01:53:05;6.80;86.60
55711;DHT22;41612;51.994;5.880;2024-03-06T01:55:44;6.80;87.00
55711;DHT22;41612;51.994;5.880;2024-03-06T01:58:10;6.70;87.40
55711;DHT22;41612;51.994;5.880;2024-03-06T02:00:38;6.70;87.60
55711;DHT22;41612;51.994;5.880;2024-03-06T02:03:07;6.70;87.60
55711;DHT22;41612;51.994;5.880;2024-03-06T02:05:44;6.70;87.40
55711;DHT22;41612;51.994;5.880;2024-03-06T02:08:12;6.60;87.30
55711;DHT22;41612;51.994;5.880;2024-03-06T02:10:38;6.60;87.30
55711;DHT22;41612;51.994;5.880;2024-03-06T02:13:09;6.60;87.30
55711;DHT22;41612;51.994;5.880;2024-03-06T02:15:36;6.60;87.40
55711;DHT22;41612;51.994;5.880;2024-03-06T02:18:05;6.50;87.30
55711;DHT22;41612;51.994;5.880;2024-03-06T02:20:37;6.50;87.30
55711;DHT22;41612;51.994;5.880;2024-03-06T02:23:05;6.50;87.20
55711;DHT22;41612;51.994;5.880;2024-03-06T02:25:42;6.40;87.30
55711;DHT22;41612;51.994;5.880;2024-03-06T02:28:08;6.50;87.30
55711;DHT22;41612;51.994;5.880;2024-03-06T02:30:39;6.30;87.10
55711;DHT22;41612;51.994;5.880;2024-03-06T02:33:07;6.30;87.20
55711;DHT22;41612;51.994;5.880;2024-03-06T02:35:36;6.30;87.10
55711;DHT22;41612;51.994;5.880;2024-03-06T02:38:04;6.30;87.10
55711;DHT22;41612;51.994;5.880;2024-03-06T02:40:35;6.30;87.30
55711;DHT22;41612;51.994;5.880;2024-03-06T02:43:10;6.30;87.20
55711;DHT22;41612;51.994;5.880;2024-03-06T02:45:38;6.20;87.00
55711;DHT22;41612;51.994;5.880;2024-03-06T02:48:07;6.20;87.00
55711;DHT22;41612;51.994;5.880;2024-03-06T02:50:38;6.20;87.10
55711;DHT22;41612;51.994;5.880;2024-03-06T02:53:06;6.20;87.40
55711;DHT22;41612;51.994;5.880;2024-03-06T02:55:32;6.20;87.30
55711;DHT22;41612;51.994;5.880;2024-03-06T02:58:02;6.20;87.20
55711;DHT22;41612;51.994;5.880;2024-03-06T03:00:30;6.20;87.40
55711;DHT22;41612;51.994;5.880;2024-03-06T03:02:57;6.20;87.40
55711;DHT22;41612;51.994;5.880;2024-03-06T03:05:24;6.20;87.30
55711;DHT22;41612;51.994;5.880;2024-03-06T03:07:53;6.10;87.40
55711;DHT22;41612;51.994;5.880;2024-03-06T03:10:22;6.10;87.60
55711;DHT22;41612;51.994;5.880;2024-03-06T03:12:50;6.20;87.70
55711;DHT22;41612;51.994;5.880;2024-03-06T03:15:29;6.20;87.70
55711;DHT22;41612;51.994;5.880;2024-03-06T03:18:10;6.20;87.80
55711;DHT22;41612;51.994;5.880;2024-03-06T03:20:39;6.10;87.80
55711;DHT22;41612;51.994;5.880;2024-03-06T03:23:11;6.10;87.80
55711;DHT22;41612;51.994;5.880;2024-03-06T03:25:43;6.10;87.70
55711;DHT22;41612;51.994;5.880;2024-03-06T03:28:08;6.00;87.50
55711;DHT22;41612;51.994;5.880;2024-03-06T03:30:43;6.00;87.40
55711;DHT22;41612;51.994;5.880;2024-03-06T03:33:12;6.00;87.50
55711;DHT22;41612;51.994;5.880;2024-03-06T03:35:40;6.00;87.70
55711;DHT22;41612;51.994;5.880;2024-03-06T03:38:09;6.00;87.80
55711;DHT22;41612;51.994;5.880;2024-03-06T03:40:34;5.90;87.70
55711;DHT22;41612;51.994;5.880;2024-03-06T03:43:00;5.90;87.70
55711;DHT22;41612;51.994;5.880;2024-03-06T03:45:42;5.90;87.70
55711;DHT22;41612;51.994;5.880;2024-03-06T03:48:08;5.90;87.70
55711;DHT22;41612;51.994;5.880;2024-03-06T03:50:41;5.90;87.70
55711;DHT22;41612;51.994;5.880;2024-03-06T03:53:06;5.80;87.60
55711;DHT22;41612;51.994;5.880;2024-03-06T03:55:36;5.80;87.60
55711;DHT22;41612;51.994;5.880;2024-03-06T03:58:07;5.80;87.60
55711;DHT22;41612;51.994;5.880;2024-03-06T04:00:35;5.80;87.60
55711;DHT22;41612;51.994;5.880;2024-03-06T04:03:11;5.80;87.60
55711;DHT22;41612;51.994;5.880;2024-03-06T04:05:41;5.70;87.40
55711;DHT22;41612;51.994;5.880;2024-03-06T04:08:15;5.70;87.10
55711;DHT22;41612;51.994;5.880;2024-03-06T04:10:46;5.70;87.20
55711;DHT22;41612;51.994;5.880;2024-03-06T04:13:17;5.70;87.40
55711;DHT22;41612;51.994;5.880;2024-03-06T04:15:51;5.70;87.30
55711;DHT22;41612;51.994;5.880;2024-03-06T04:18:19;5.70;87.00
55711;DHT22;41612;51.994;5.880;2024-03-06T04:20:49;5.60;86.80
55711;DHT22;41612;51.994;5.880;2024-03-06T04:23:21;5.70;87.10
55711;DHT22;41612;51.994;5.880;2024-03-06T04:25:52;5.60;87.20
55711;DHT22;41612;51.994;5.880;2024-03-06T04:28:20;5.70;86.90
55711;DHT22;41612;51.994;5.880;2024-03-06T04:30:48;5.60;86.90
55711;DHT22;41612;51.994;5.880;2024-03-06T04:33:16;5.60;86.80
55711;DHT22;41612;51.994;5.880;2024-03-06T04:35:45;5.60;86.90
55711;DHT22;41612;51.994;5.880;2024-03-06T04:38:19;5.60;86.70
55711;DHT22;41612;51.994;5.880;2024-03-06T04:40:47;5.60;87.10
55711;DHT22;41612;51.994;5.880;2024-03-06T04:43:13;5.60;86.80
55711;DHT22;41612;51.994;5.880;2024-03-06T04:45:44;5.60;87.00
55711;DHT22;41612;51.994;5.880;2024-03-06T04:48:24;5.50;86.70
55711;DHT22;41612;51.994;5.880;2024-03-06T04:50:51;5.50;86.80
55711;DHT22;41612;51.994;5.880;2024-03-06T04:53:17;5.50;86.80
55711;DHT22;41612;51.994;5.880;2024-03-06T04:55:42;5.50;86.70
55711;DHT22;41612;51.994;5.880;2024-03-06T05:00:51;5.50;86.60
55711;DHT22;41612;51.994;5.880;2024-03-06T05:03:20;5.50;87.00
55711;DHT22;41612;51.994;5.880;2024-03-06T05:05:52;5.50;87.10
55711;DHT22;41612;51.994;5.880;2024-03-06T05:08:31;5.50;87.30
55711;DHT22;41612;51.994;5.880;2024-03-06T05:11:01;5.50;87.30
55711;DHT22;41612;51.994;5.880;2024-03-06T05:13:35;5.50;87.00
55711;DHT22;41612;51.994;5.880;2024-03-06T05:16:10;5.50;86.90
55711;DHT22;41612;51.994;5.880;2024-03-06T05:18:35;5.50;86.80
55711;DHT22;41612;51.994;5.880;2024-03-06T05:21:05;5.40;86.60
55711;DHT22;41612;51.994;5.880;2024-03-06T05:23:31;5.40;86.60
55711;DHT22;41612;51.994;5.880;2024-03-06T05:26:03;5.40;86.80
55711;DHT22;41612;51.994;5.880;2024-03-06T05:28:37;5.40;86.70
55711;DHT22;41612;51.994;5.880;2024-03-06T05:31:18;5.40;86.80
55711;DHT22;41612;51.994;5.880;2024-03-06T05:33:49;5.40;86.90
55711;DHT22;41612;51.994;5.880;2024-03-06T05:36:18;5.40;87.10
55711;DHT22;41612;51.994;5.880;2024-03-06T05:38:55;5.40;87.10
55711;DHT22;41612;51.994;5.880;2024-03-06T05:41:43;5.50;87.00
55711;DHT22;41612;51.994;5.880;2024-03-06T05:44:12;5.50;87.30
55711;DHT22;41612;51.994;5.880;2024-03-06T05:46:41;5.50;87.60
55711;DHT22;41612;51.994;5.880;2024-03-06T05:49:11;5.40;87.50
55711;DHT22;41612;51.994;5.880;2024-03-06T05:51:37;5.40;87.60
55711;DHT22;41612;51.994;5.880;2024-03-06T05:54:03;5.40;88.00
55711;DHT22;41612;51.994;5.880;2024-03-06T05:56:35;5.40;88.10
55711;DHT22;41612;51.994;5.880;2024-03-06T05:59:03;5.30;87.90
55711;DHT22;41612;51.994;5.880;2024-03-06T06:01:36;5.30;87.70
55711;DHT22;41612;51.994;5.880;2024-03-06T06:04:23;5.30;87.40
55711;DHT22;41612;51.994;5.880;2024-03-06T06:06:51;5.30;87.50
55711;DHT22;41612;51.994;5.880;2024-03-06T06:09:24;5.30;87.60
55711;DHT22;41612;51.994;5.880;2024-03-06T06:11:50;5.30;87.60
55711;DHT22;41612;51.994;5.880;2024-03-06T06:14:18;5.30;87.50
55711;DHT22;41612;51.994;5.880;2024-03-06T06:16:44;5.30;87.50
55711;DHT22;41612;51.994;5.880;2024-03-06T06:19:14;5.30;87.50
55711;DHT22;41612;51.994;5.880;2024-03-06T06:21:43;5.30;87.40
55711;DHT22;41612;51.994;5.880;2024-03-06T06:24:26;5.20;87.30
55711;DHT22;41612;51.994;5.880;2024-03-06T06:27:01;5.30;87.20
55711;DHT22;41612;51.994;5.880;2024-03-06T06:29:30;5.30;87.40
55711;DHT22;41612;51.994;5.880;2024-03-06T06:31:56;5.30;87.30
55711;DHT22;41612;51.994;5.880;2024-03-06T06:34:23;5.30;87.30
55711;DHT22;41612;51.994;5.880;2024-03-06T06:36:58;5.30;87.20
55711;DHT22;41612;51.994;5.880;2024-03-06T06:39:41;5.30;87.20
55711;DHT22;41612;51.994;5.880;2024-03-06T06:42:07;5.40;87.20
55711;DHT22;41612;51.994;5.880;2024-03-06T06:44:37;5.40;87.10
55711;DHT22;41612;51.994;5.880;2024-03-06T06:47:10;5.50;87.10
55711;DHT22;41612;51.994;5.880;2024-03-06T06:49:38;5.50;87.00
55711;DHT22;41612;51.994;5.880;2024-03-06T06:52:04;5.50;87.00
55711;DHT22;41612;51.994;5.880;2024-03-06T06:54:41;5.60;87.00
55711;DHT22;41612;51.994;5.880;2024-03-06T06:57:14;5.70;87.10
55711;DHT22;41612;51.994;5.880;2024-03-06T06:59:44;5.70;87.00
55711;DHT22;41612;51.994;5.880;2024-03-06T07:02:31;5.70;87.10
55711;DHT22;41612;51.994;5.880;2024-03-06T07:05:04;5.70;87.00
55711;DHT22;41612;51.994;5.880;2024-03-06T07:07:34;5.70;87.10
55711;DHT22;41612;51.994;5.880;2024-03-06T07:21:18;5.90;87.40
55711;DHT22;41612;51.994;5.880;2024-03-06T07:23:55;5.90;87.50
55711;DHT22;41612;51.994;5.880;2024-03-06T07:26:49;6.00;87.60
55711;DHT22;41612;51.994;5.880;2024-03-06T07:30:02;6.10;87.60
55711;DHT22;41612;51.994;5.880;2024-03-06T07:32:40;6.20;87.70
55711;DHT22;41612;51.994;5.880;2024-03-06T07:35:09;6.20;87.60
55711;DHT22;41612;51.994;5.880;2024-03-06T07:42:53;6.30;87.40
55711;DHT22;41612;51.994;5.880;2024-03-06T07:45:19;6.40;87.50
55711;DHT22;41612;51.994;5.880;2024-03-06T07:47:45;6.50;87.60
55711;DHT22;41612;51.994;5.880;2024-03-06T07:50:11;6.50;87.40
55711;DHT22;41612;51.994;5.880;2024-03-06T07:52:38;6.60;87.40
55711;DHT22;41612;51.994;5.880;2024-03-06T07:55:04;6.50;87.40
55711;DHT22;41612;51.994;5.880;2024-03-06T07:57:29;6.60;87.40
55711;DHT22;41612;51.994;5.880;2024-03-06T07:59:55;6.50;87.30
55711;DHT22;41612;51.994;5.880;2024-03-06T08:02:21;6.50;87.40
55711;DHT22;41612;51.994;5.880;2024-03-06T08:04:48;6.50;87.00
55711;DHT22;41612;51.994;5.880;2024-03-06T08:07:37;6.40;87.30
55711;DHT22;41612;51.994;5.880;2024-03-06T08:23:42;6.40;87.60
55711;DHT22;41612;51.994;5.880;2024-03-06T08:40:20;6.40;87.90
55711;DHT22;41612;51.994;5.880;2024-03-06T08:42:58;6.40;87.90
55711;DHT22;41612;51.994;5.880;2024-03-06T08:46:28;6.50;88.00
55711;DHT22;41612;51.994;5.880;2024-03-06T08:49:05;6.50;88.00
55711;DHT22;41612;51.994;5.880;2024-03-06T08:51:57;6.70;87.90
55711;DHT22;41612;51.994;5.880;2024-03-06T08:54:45;6.60;87.40
55711;DHT22;41612;51.994;5.880;2024-03-06T08:57:38;6.70;87.60
55711;DHT22;41612;51.994;5.880;2024-03-06T09:03:11;6.90;87.40
55711;DHT22;41612;51.994;5.880;2024-03-06T09:05:45;7.00;87.60
55711;DHT22;41612;51.994;5.880;2024-03-06T09:08:45;7.10;87.50
55711;DHT22;41612;51.994;5.880;2024-03-06T09:11:38;7.30;87.70
55711;DHT22;41612;51.994;5.880;2024-03-06T09:14:57;7.60;86.80
55711;DHT22;41612;51.994;5.880;2024-03-06T09:17:41;7.80;86.80
55711;DHT22;41612;51.994;5.880;2024-03-06T10:43:30;9.30;83.80
55711;DHT22;41612;51.994;5.880;2024-03-06T10:46:24;9.50;82.90
55711;DHT22;41612;51.994;5.880;2024-03-06T10:49:16;9.60;81.90
55711;DHT22;41612;51.994;5.880;2024-03-06T10:52:36;9.70;82.10
55711;DHT22;41612;51.994;5.880;2024-03-06T10:55:11;9.80;81.40
55711;DHT22;41612;51.994;5.880;2024-03-06T10:58:14;9.90;78.80
55711;DHT22;41612;51.994;5.880;2024-03-06T11:01:04;10.20;80.50
55711;DHT22;41612;51.994;5.880;2024-03-06T11:04:00;10.50;79.90
55711;DHT22;41612;51.994;5.880;2024-03-06T12:34:16;17.70;53.80
55711;DHT22;41612;51.994;5.880;2024-03-06T12:36:48;17.80;54.30
55711;DHT22;41612;51.994;5.880;2024-03-06T12:39:25;18.80;51.90
55711;DHT22;41612;51.994;5.880;2024-03-06T13:00:55;20.30;47.90
55711;DHT22;41612;51.994;5.880;2024-03-06T13:03:38;20.70;45.20
55711;DHT22;41612;51.994;5.880;2024-03-06T13:06:24;20.00;47.50
55711;DHT22;41612;51.994;5.880;2024-03-06T13:08:50;20.70;46.70
55711;DHT22;41612;51.994;5.880;2024-03-06T13:11:17;21.10;44.60
55711;DHT22;41612;51.994;5.880;2024-03-06T13:13:42;21.00;44.40
55711;DHT22;41612;51.994;5.880;2024-03-06T13:16:09;21.80;44.70
55711;DHT22;41612;51.994;5.880;2024-03-06T13:18:37;23.30;42.20
55711;DHT22;41612;51.994;5.880;2024-03-06T13:21:03;24.60;39.10
55711;DHT22;41612;51.994;5.880;2024-03-06T13:23:28;24.60;39.10
55711;DHT22;41612;51.994;5.880;2024-03-06T13:25:59;24.80;39.10
55711;DHT22;41612;51.994;5.880;2024-03-06T13:28:26;25.90;37.80
55711;DHT22;41612;51.994;5.880;2024-03-06T13:30:52;27.10;34.90
55711;DHT22;41612;51.994;5.880;2024-03-06T13:33:18;27.30;34.20
55711;DHT22;41612;51.994;5.880;2024-03-06T13:35:43;26.70;34.80
55711;DHT22;41612;51.994;5.880;2024-03-06T13:38:10;25.80;36.00
55711;DHT22;41612;51.994;5.880;2024-03-06T13:40:36;25.30;37.00
55711;DHT22;41612;51.994;5.880;2024-03-06T13:43:02;24.00;37.40
55711;DHT22;41612;51.994;5.880;2024-03-06T13:45:27;22.90;40.60
55711;DHT22;41612;51.994;5.880;2024-03-06T13:47:54;23.70;39.60
55711;DHT22;41612;51.994;5.880;2024-03-06T13:50:19;25.10;35.60
55711;DHT22;41612;51.994;5.880;2024-03-06T13:52:48;25.10;36.40
55711;DHT22;41612;51.994;5.880;2024-03-06T13:55:17;24.70;38.00
55711;DHT22;41612;51.994;5.880;2024-03-06T13:57:45;25.70;35.10
55711;DHT22;41612;51.994;5.880;2024-03-06T14:00:11;27.00;34.70
55711;DHT22;41612;51.994;5.880;2024-03-06T14:02:46;28.10;31.90
55711;DHT22;41612;51.994;5.880;2024-03-06T14:05:12;29.20;31.10
55711;DHT22;41612;51.994;5.880;2024-03-06T14:07:40;30.10;28.80
55711;DHT22;41612;51.994;5.880;2024-03-06T14:10:12;30.90;29.10
55711;DHT22;41612;51.994;5.880;2024-03-06T14:12:40;31.50;26.90
55711;DHT22;41612;51.994;5.880;2024-03-06T14:15:08;32.20;24.90
55711;DHT22;41612;51.994;5.880;2024-03-06T14:17:41;32.50;25.40
55711;DHT22;41612;51.994;5.880;2024-03-06T14:20:08;32.80;25.20
55711;DHT22;41612;51.994;5.880;2024-03-06T14:22:35;33.20;23.90
55711;DHT22;41612;51.994;5.880;2024-03-06T14:25:02;33.30;22.80
55711;DHT22;41612;51.994;5.880;2024-03-06T14:27:28;33.10;23.80
55711;DHT22;41612;51.994;5.880;2024-03-06T14:29:55;32.70;24.70
55711;DHT22;41612;51.994;5.880;2024-03-06T14:32:21;32.40;24.80
55711;DHT22;41612;51.994;5.880;2024-03-06T14:34:48;32.00;26.20
55711;DHT22;41612;51.994;5.880;2024-03-06T14:37:14;32.00;24.70
55711;DHT22;41612;51.994;5.880;2024-03-06T14:39:39;32.00;23.60
55711;DHT22;41612;51.994;5.880;2024-03-06T14:42:06;31.70;22.80
55711;DHT22;41612;51.994;5.880;2024-03-06T14:44:32;31.50;24.20
55711;DHT22;41612;51.994;5.880;2024-03-06T14:46:58;31.60;24.50
55711;DHT22;41612;51.994;5.880;2024-03-06T14:49:24;31.70;24.00
55711;DHT22;41612;51.994;5.880;2024-03-06T14:51:51;31.70;23.90
55711;DHT22;41612;51.994;5.880;2024-03-06T14:54:18;31.70;26.00
55711;DHT22;41612;51.994;5.880;2024-03-06T14:56:45;31.60;24.20
55711;DHT22;41612;51.994;5.880;2024-03-06T14:59:11;31.50;23.80
55711;DHT22;41612;51.994;5.880;2024-03-06T15:01:40;31.40;24.40
55711;DHT22;41612;51.994;5.880;2024-03-06T15:04:06;31.30;26.30
55711;DHT22;41612;51.994;5.880;2024-03-06T15:06:32;31.10;25.90
55711;DHT22;41612;51.994;5.880;2024-03-06T15:08:57;30.70;26.20
55711;DHT22;41612;51.994;5.880;2024-03-06T15:11:23;29.60;29.30
55711;DHT22;41612;51.994;5.880;2024-03-06T15:13:50;27.90;31.80
55711;DHT22;41612;51.994;5.880;2024-03-06T15:16:16;25.90;30.40
55711;DHT22;41612;51.994;5.880;2024-03-06T15:18:42;24.10;32.40
55711;DHT22;41612;51.994;5.880;2024-03-06T15:21:09;22.60;34.30
55711;DHT22;41612;51.994;5.880;2024-03-06T15:23:35;21.40;36.40
55711;DHT22;41612;51.994;5.880;2024-03-06T15:26:00;21.30;37.10
55711;DHT22;41612;51.994;5.880;2024-03-06T15:28:26;22.50;37.10
55711;DHT22;41612;51.994;5.880;2024-03-06T15:30:52;24.10;35.70
55711;DHT22;41612;51.994;5.880;2024-03-06T15:33:18;24.80;35.40
55711;DHT22;41612;51.994;5.880;2024-03-06T15:35:44;24.50;34.50
55711;DHT22;41612;51.994;5.880;2024-03-06T15:38:10;23.30;35.20
55711;DHT22;41612;51.994;5.880;2024-03-06T15:40:36;22.00;36.60
55711;DHT22;41612;51.994;5.880;2024-03-06T15:43:05;20.90;41.40
55711;DHT22;41612;51.994;5.880;2024-03-06T15:45:32;20.30;39.60
55711;DHT22;41612;51.994;5.880;2024-03-06T15:48:00;21.10;38.00
55711;DHT22;41612;51.994;5.880;2024-03-06T15:50:31;22.00;36.70
55711;DHT22;41612;51.994;5.880;2024-03-06T15:52:57;23.30;38.50
55711;DHT22;41612;51.994;5.880;2024-03-06T15:55:25;24.30;38.10
55711;DHT22;41612;51.994;5.880;2024-03-06T15:58:05;25.10;37.90
55711;DHT22;41612;51.994;5.880;2024-03-06T16:00:31;25.70;36.60
55711;DHT22;41612;51.994;5.880;2024-03-06T16:02:59;26.00;32.20
55711;DHT22;41612;51.994;5.880;2024-03-06T16:05:25;26.20;35.50
55711;DHT22;41612;51.994;5.880;2024-03-06T16:07:58;26.20;36.40
55711;DHT22;41612;51.994;5.880;2024-03-06T16:10:27;26.20;34.20
55711;DHT22;41612;51.994;5.880;2024-03-06T16:12:53;26.20;36.20
55711;DHT22;41612;51.994;5.880;2024-03-06T16:15:25;26.00;35.50
55711;DHT22;41612;51.994;5.880;2024-03-06T16:18:02;25.70;32.90
55711;DHT22;41612;51.994;5.880;2024-03-06T16:21:09;25.40;31.90
55711;DHT22;41612;51.994;5.880;2024-03-06T16:23:48;25.00;32.40
55711;DHT22;41612;51.994;5.880;2024-03-06T16:26:28;24.60;32.10
55711;DHT22;41612;51.994;5.880;2024-03-06T16:29:08;24.20;34.10
55711;DHT22;41612;51.994;5.880;2024-03-06T16:31:45;23.80;34.40
55711;DHT22;41612;51.994;5.880;2024-03-06T16:34:26;23.50;34.70
55711;DHT22;41612;51.994;5.880;2024-03-06T16:37:03;23.30;35.00
55711;DHT22;41612;51.994;5.880;2024-03-06T16:39:37;22.90;41.10
55711;DHT22;41612;51.994;5.880;2024-03-06T16:42:04;22.10;42.90
55711;DHT22;41612;51.994;5.880;2024-03-06T16:44:31;20.80;45.90
55711;DHT22;41612;51.994;5.880;2024-03-06T16:46:59;19.70;46.80
55711;DHT22;41612;51.994;5.880;2024-03-06T16:49:27;18.70;48.30
55711;DHT22;41612;51.994;5.880;2024-03-06T16:51:53;17.80;51.00
55711;DHT22;41612;51.994;5.880;2024-03-06T16:54:18;17.20;55.50
55711;DHT22;41612;51.994;5.880;2024-03-06T16:56:44;16.70;58.60
55711;DHT22;41612;51.994;5.880;2024-03-06T16:59:14;16.20;59.80
55711;DHT22;41612;51.994;5.880;2024-03-06T17:01:40;16.00;61.90
55711;DHT22;41612;51.994;5.880;2024-03-06T17:04:07;15.70;62.30
55711;DHT22;41612;51.994;5.880;2024-03-06T17:06:36;15.30;61.30
55711;DHT22;41612;51.994;5.880;2024-03-06T17:09:04;15.00;62.20
55711;DHT22;41612;51.994;5.880;2024-03-06T17:11:39;14.80;64.50
55711;DHT22;41612;51.994;5.880;2024-03-06T17:14:14;14.60;65.90
55711;DHT22;41612;51.994;5.880;2024-03-06T17:16:43;14.30;65.90
55711;DHT22;41612;51.994;5.880;2024-03-06T17:19:10;14.10;68.00
55711;DHT22;41612;51.994;5.880;2024-03-06T17:21:35;13.90;68.20
55711;DHT22;41612;51.994;5.880;2024-03-06T17:24:04;13.70;69.40
55711;DHT22;41612;51.994;5.880;2024-03-06T17:26:31;13.50;69.70
55711;DHT22;41612;51.994;5.880;2024-03-06T17:28:57;13.30;69.50
55711;DHT22;41612;51.994;5.880;2024-03-06T17:31:23;13.20;70.70
55711;DHT22;41612;51.994;5.880;2024-03-06T17:33:51;13.10;71.50
55711;DHT22;41612;51.994;5.880;2024-03-06T17:36:34;13.00;72.10
55711;DHT22;41612;51.994;5.880;2024-03-06T17:39:00;12.90;72.70
55711;DHT22;41612;51.994;5.880;2024-03-06T17:41:28;12.80;73.60
55711;DHT22;41612;51.994;5.880;2024-03-06T17:44:00;12.70;74.40
55711;DHT22;41612;51.994;5.880;2024-03-06T17:46:37;12.50;74.20
55711;DHT22;41612;51.994;5.880;2024-03-06T17:49:10;12.40;73.90
55711;DHT22;41612;51.994;5.880;2024-03-06T17:51:48;12.30;74.50
55711;DHT22;41612;51.994;5.880;2024-03-06T17:54:17;12.20;76.10
55711;DHT22;41612;51.994;5.880;2024-03-06T17:56:43;12.20;76.70
55711;DHT22;41612;51.994;5.880;2024-03-06T17:59:09;12.20;76.50
55711;DHT22;41612;51.994;5.880;2024-03-06T18:01:36;12.10;76.40
55711;DHT22;41612;51.994;5.880;2024-03-06T18:04:02;12.00;77.10
55711;DHT22;41612;51.994;5.880;2024-03-06T18:06:28;11.90;77.60
55711;DHT22;41612;51.994;5.880;2024-03-06T18:08:54;11.90;77.40
55711;DHT22;41612;51.994;5.880;2024-03-06T18:11:19;11.80;78.40
55711;DHT22;41612;51.994;5.880;2024-03-06T18:13:50;11.80;78.40
55711;DHT22;41612;51.994;5.880;2024-03-06T18:16:15;11.70;78.70
55711;DHT22;41612;51.994;5.880;2024-03-06T18:18:42;11.70;78.50
55711;DHT22;41612;51.994;5.880;2024-03-06T18:21:07;11.60;78.50
55711;DHT22;41612;51.994;5.880;2024-03-06T18:23:35;11.50;79.40
55711;DHT22;41612;51.994;5.880;2024-03-06T18:26:01;11.50;78.70
55711;DHT22;41612;51.994;5.880;2024-03-06T18:28:27;11.50;79.70
55711;DHT22;41612;51.994;5.880;2024-03-06T18:30:56;11.40;80.00
55711;DHT22;41612;51.994;5.880;2024-03-06T18:33:22;11.40;80.10
55711;DHT22;41612;51.994;5.880;2024-03-06T18:35:48;11.30;80.30
55711;DHT22;41612;51.994;5.880;2024-03-06T18:38:14;11.30;80.50
55711;DHT22;41612;51.994;5.880;2024-03-06T18:40:39;11.20;80.60
55711;DHT22;41612;51.994;5.880;2024-03-06T18:43:06;11.20;80.80
55711;DHT22;41612;51.994;5.880;2024-03-06T18:45:33;11.20;80.90
55711;DHT22;41612;51.994;5.880;2024-03-06T18:47:59;11.10;81.10
55711;DHT22;41612;51.994;5.880;2024-03-06T18:50:25;11.10;81.30
55711;DHT22;41612;51.994;5.880;2024-03-06T18:52:51;11.00;81.00
55711;DHT22;41612;51.994;5.880;2024-03-06T19:27:30;10.40;82.20
55711;DHT22;41612;51.994;5.880;2024-03-06T21:03:27;9.00;85.70
55711;DHT22;41612;51.994;5.880;2024-03-06T21:05:53;8.90;85.80
55711;DHT22;41612;51.994;5.880;2024-03-06T21:08:19;8.90;85.80
55711;DHT22;41612;51.994;5.880;2024-03-06T21:10:45;8.90;85.80
55711;DHT22;41612;51.994;5.880;2024-03-06T21:13:10;8.80;85.50
55711;DHT22;41612;51.994;5.880;2024-03-06T21:15:36;8.80;86.00
55711;DHT22;41612;51.994;5.880;2024-03-06T21:18:04;8.80;86.00
55711;DHT22;41612;51.994;5.880;2024-03-06T21:20:29;8.80;86.20
55711;DHT22;41612;51.994;5.880;2024-03-06T21:22:55;8.80;86.00
55711;DHT22;41612;51.994;5.880;2024-03-06T21:25:21;8.80;86.10
55711;DHT22;41612;51.994;5.880;2024-03-06T21:27:48;8.70;86.10
55711;DHT22;41612;51.994;5.880;2024-03-06T21:30:15;8.70;86.20
55711;DHT22;41612;51.994;5.880;2024-03-06T21:32:41;8.70;86.00
55711;DHT22;41612;51.994;5.880;2024-03-06T21:35:09;8.60;86.10
55711;DHT22;41612;51.994;5.880;2024-03-06T21:37:38;8.60;86.10
55711;DHT22;41612;51.994;5.880;2024-03-06T21:40:04;8.60;86.40
55711;DHT22;41612;51.994;5.880;2024-03-06T21:42:30;8.50;86.50
55711;DHT22;41612;51.994;5.880;2024-03-06T21:44:56;8.50;86.70
55711;DHT22;41612;51.994;5.880;2024-03-06T21:47:22;8.50;86.70
55711;DHT22;41612;51.994;5.880;2024-03-06T21:49:48;8.40;86.80
55711;DHT22;41612;51.994;5.880;2024-03-06T21:52:15;8.40;86.60
55711;DHT22;41612;51.994;5.880;2024-03-06T21:54:44;8.40;86.80
55711;DHT22;41612;51.994;5.880;2024-03-06T21:57:10;8.40;86.80
55711;DHT22;41612;51.994;5.880;2024-03-06T21:59:40;8.30;86.60
55711;DHT22;41612;51.994;5.880;2024-03-06T22:02:07;8.30;86.70
55711;DHT22;41612;51.994;5.880;2024-03-06T22:04:33;8.30;86.90
55711;DHT22;41612;51.994;5.880;2024-03-06T22:06:59;8.20;87.00